createdAt,value
2017-08-14T00:00:29.728Z,67.87
2017-08-14T00:02:57.533Z,67.75
2017-08-14T00:05:25.408Z,67.83
2017-08-14T00:07:53.129Z,67.20
2017-08-14T00:10:21.092Z,67.38
2017-08-14T00:12:48.913Z,67.49
2017-08-14T00:15:16.730Z,68.28
2017-08-14T00:17:44.694Z,69.02
2017-08-14T00:20:12.609Z,68.06
2017-08-14T00:22:40.331Z,67.94
2017-08-14T00:25:08.295Z,69.17
2017-08-14T00:27:36.212Z,68.54
2017-08-14T00:30:03.867Z,68.19
2017-08-14T00:32:31.521Z,69.08
2017-08-14T00:34:59.399Z,69.13
2017-08-14T00:37:27.090Z,69.91
2017-08-14T00:39:54.898Z,69.91
2017-08-14T00:42:22.837Z,70.55
2017-08-14T00:44:50.664Z,70.53
2017-08-14T00:47:18.403Z,70.89
2017-08-14T00:49:46.175Z,69.38
2017-08-14T00:52:14.057Z,69.63
2017-08-14T00:54:41.701Z,68.91
2017-08-14T00:57:10.468Z,69.18
2017-08-14T00:59:38.269Z,70.44
2017-08-14T01:02:06.101Z,69.94
2017-08-14T01:04:33.846Z,70.52
2017-08-14T01:07:01.667Z,70.29
2017-08-14T01:09:29.318Z,72.65
2017-08-14T01:11:56.991Z,73.00
2017-08-14T01:14:24.653Z,72.32
2017-08-14T01:16:52.311Z,70.97
2017-08-14T01:19:20.074Z,71.82
2017-08-14T01:21:48.012Z,71.99
2017-08-14T01:24:15.781Z,72.11
2017-08-14T01:26:43.749Z,72.85
2017-08-14T01:29:11.487Z,73.31
2017-08-14T01:31:39.518Z,72.64
2017-08-14T01:34:07.249Z,72.83
2017-08-14T01:36:35.045Z,71.27
2017-08-14T01:39:02.913Z,73.53
2017-08-14T01:41:30.652Z,73.03
2017-08-14T01:43:58.646Z,72.78
2017-08-14T01:46:26.307Z,72.90
2017-08-14T01:48:54.169Z,71.22
2017-08-14T01:51:21.893Z,72.04
2017-08-14T01:53:49.698Z,72.45
2017-08-14T01:56:17.552Z,71.53
2017-08-14T01:58:45.439Z,72.42
2017-08-14T02:01:13.408Z,71.29
2017-08-14T02:03:41.225Z,71.68
2017-08-14T02:06:09.194Z,71.34
2017-08-14T02:08:36.905Z,72.79
2017-08-14T02:11:04.929Z,71.28
2017-08-14T02:13:33.820Z,71.58
2017-08-14T02:16:01.427Z,71.91
2017-08-14T02:18:29.330Z,70.61
2017-08-14T02:20:57.046Z,72.26
2017-08-14T02:23:24.991Z,72.59
2017-08-14T02:25:52.996Z,72.17
2017-08-14T02:28:20.846Z,72.30
2017-08-14T02:30:48.591Z,73.87
2017-08-14T02:33:16.359Z,74.27
2017-08-14T02:35:44.095Z,73.36
2017-08-14T02:38:12.126Z,73.33
2017-08-14T02:40:40.105Z,72.76
2017-08-14T02:43:08.067Z,71.66
2017-08-14T02:45:35.794Z,71.93
2017-08-14T02:48:03.783Z,73.08
2017-08-14T02:50:31.727Z,72.97
2017-08-14T02:52:59.693Z,73.26
2017-08-14T02:55:27.605Z,74.88
2017-08-14T02:57:55.452Z,72.18
2017-08-14T03:00:23.446Z,71.70
2017-08-14T03:02:51.410Z,72.54
2017-08-14T03:05:19.252Z,68.75
2017-08-14T03:07:46.938Z,68.64
2017-08-14T03:10:14.805Z,70.17
2017-08-14T03:12:42.875Z,70.87
2017-08-14T03:15:10.595Z,71.08
2017-08-14T03:17:38.617Z,71.28
2017-08-14T03:20:06.255Z,70.94
2017-08-14T03:22:33.999Z,72.61
2017-08-14T03:25:01.731Z,71.88
2017-08-14T03:27:29.342Z,70.65
2017-08-14T03:29:57.130Z,69.47
2017-08-14T03:32:24.997Z,70.52
2017-08-14T03:34:52.705Z,70.57
2017-08-14T03:37:20.673Z,70.86
2017-08-14T03:39:48.392Z,70.76
2017-08-14T03:42:16.234Z,70.14
2017-08-14T03:44:44.121Z,68.66
2017-08-14T03:47:12.194Z,70.01
2017-08-14T03:49:39.912Z,70.00
2017-08-14T03:52:07.878Z,68.57
2017-08-14T03:54:35.946Z,70.38
2017-08-14T03:57:03.764Z,71.46
2017-08-14T04:01:58.848Z,71.59
2017-08-14T04:04:26.765Z,71.02
2017-08-14T04:06:54.719Z,70.36
2017-08-14T04:09:22.648Z,70.45
2017-08-14T04:11:50.657Z,69.74
2017-08-14T04:14:18.679Z,69.40
2017-08-14T04:16:46.748Z,68.99
2017-08-14T04:19:14.670Z,70.16
2017-08-14T04:21:42.382Z,69.05
2017-08-14T04:24:10.401Z,69.93
2017-08-14T04:26:38.117Z,68.84
2017-08-14T04:29:05.929Z,68.76
2017-08-14T04:31:33.945Z,68.50
2017-08-14T04:34:01.768Z,69.12
2017-08-14T04:36:29.635Z,70.32
2017-08-14T04:38:57.604Z,71.22
2017-08-14T04:41:25.369Z,70.11
2017-08-14T04:43:53.340Z,70.34
2017-08-14T04:46:21.375Z,72.46
2017-08-14T04:48:49.422Z,70.63
2017-08-14T04:51:17.349Z,72.90
2017-08-14T04:53:45.418Z,73.07
2017-08-14T04:56:13.271Z,73.81
2017-08-14T04:58:41.147Z,75.03
2017-08-14T05:01:09.207Z,74.66
2017-08-14T05:03:37.349Z,76.02
2017-08-14T05:06:05.312Z,75.35
2017-08-14T05:08:33.133Z,75.68
2017-08-14T05:11:01.099Z,76.09
2017-08-14T05:13:28.938Z,76.98
2017-08-14T05:15:56.984Z,76.05
2017-08-14T05:18:24.905Z,75.10
2017-08-14T05:20:52.619Z,76.29
2017-08-14T05:23:20.637Z,75.54
2017-08-14T05:25:48.351Z,76.72
2017-08-14T05:28:15.960Z,76.39
2017-08-14T05:30:43.829Z,77.68
2017-08-14T05:33:11.675Z,79.65
2017-08-14T05:35:39.563Z,79.53
2017-08-14T05:38:07.634Z,80.31
2017-08-14T05:40:35.350Z,78.90
2017-08-14T05:43:03.319Z,78.65
2017-08-14T05:45:31.235Z,78.00
2017-08-14T05:47:59.078Z,77.32
2017-08-14T05:50:26.821Z,76.76
2017-08-14T05:52:54.834Z,75.73
2017-08-14T05:55:22.679Z,77.06
2017-08-14T05:57:50.569Z,76.59
2017-08-14T06:00:19.459Z,75.76
2017-08-14T06:02:47.481Z,75.79
2017-08-14T06:05:15.400Z,74.40
2017-08-14T06:07:43.242Z,72.07
2017-08-14T06:10:10.982Z,73.21
2017-08-14T06:12:38.850Z,71.17
2017-08-14T06:15:06.865Z,70.59
2017-08-14T06:17:34.708Z,69.80
2017-08-14T06:20:02.397Z,68.30
2017-08-14T06:22:30.468Z,68.96
2017-08-14T06:24:58.185Z,67.67
2017-08-14T06:27:26.203Z,67.18
2017-08-14T06:29:53.861Z,66.54
2017-08-14T06:32:21.523Z,66.69
2017-08-14T06:34:49.259Z,67.32
2017-08-14T06:37:17.258Z,67.90
2017-08-14T06:39:45.328Z,67.36
2017-08-14T06:42:13.305Z,64.64
2017-08-14T06:44:41.268Z,65.48
2017-08-14T06:47:08.990Z,63.15
2017-08-14T06:49:36.903Z,61.43
2017-08-14T06:52:04.717Z,61.49
2017-08-14T06:54:32.712Z,58.78
2017-08-14T06:57:00.580Z,57.45
2017-08-14T06:59:28.299Z,55.75
2017-08-14T07:01:56.336Z,51.91
2017-08-14T07:04:24.202Z,45.28
2017-08-14T07:06:52.246Z,43.64
2017-08-14T07:09:19.936Z,44.46
2017-08-14T07:11:47.783Z,46.88
2017-08-14T07:14:15.626Z,48.36
2017-08-14T07:16:43.330Z,43.73
2017-08-14T07:19:11.063Z,42.71
2017-08-14T07:21:39.027Z,46.45
2017-08-14T07:24:06.933Z,47.72
2017-08-14T07:26:34.577Z,46.13
2017-08-14T07:29:02.253Z,44.16
2017-08-14T07:31:29.975Z,41.23
2017-08-14T07:33:57.990Z,39.04
2017-08-14T07:36:25.651Z,38.71
2017-08-14T07:38:53.378Z,42.06
2017-08-14T07:41:21.365Z,39.92
2017-08-14T07:43:49.253Z,36.31
2017-08-14T07:46:16.975Z,36.85
2017-08-14T07:48:44.890Z,35.23
2017-08-14T07:51:12.763Z,33.65
2017-08-14T07:53:40.516Z,34.94
2017-08-14T07:56:08.223Z,34.88
2017-08-14T07:58:36.210Z,35.57
2017-08-14T08:01:03.951Z,35.07
2017-08-14T08:03:31.773Z,35.73
2017-08-14T08:05:59.852Z,34.32
2017-08-14T08:08:27.514Z,35.70
2017-08-14T08:10:55.173Z,34.60
2017-08-14T08:13:23.274Z,34.33
2017-08-14T08:15:51.081Z,33.77
2017-08-14T08:18:18.979Z,34.44
2017-08-14T08:20:46.917Z,38.41
2017-08-14T08:23:14.908Z,37.87
2017-08-14T08:25:42.577Z,36.87
2017-08-14T08:28:10.496Z,37.28
2017-08-14T08:30:38.316Z,38.49
2017-08-14T08:33:06.153Z,38.42
2017-08-14T08:35:33.856Z,39.32
2017-08-14T08:38:01.915Z,39.88
2017-08-14T08:40:29.633Z,41.15
2017-08-14T08:42:57.622Z,36.26
2017-08-14T08:45:25.308Z,35.13
2017-08-14T08:47:53.033Z,36.95
2017-08-14T08:50:20.700Z,36.76
2017-08-14T08:52:48.304Z,37.34
2017-08-14T08:55:15.915Z,39.13
2017-08-14T08:57:43.571Z,39.53
2017-08-14T09:00:11.394Z,38.74
2017-08-14T09:02:39.147Z,37.24
2017-08-14T09:05:06.977Z,36.94
2017-08-14T09:07:34.881Z,38.75
2017-08-14T09:10:02.954Z,40.03
2017-08-14T09:12:30.615Z,42.20
2017-08-14T09:14:58.272Z,43.06
2017-08-14T09:17:25.986Z,43.47
2017-08-14T09:19:54.011Z,44.07
2017-08-14T09:22:21.672Z,42.67
2017-08-14T09:24:49.389Z,41.76
2017-08-14T09:27:17.357Z,43.58
2017-08-14T09:29:45.180Z,43.31
2017-08-14T09:32:12.997Z,45.13
2017-08-14T09:34:40.859Z,46.65
2017-08-14T09:37:08.875Z,43.80
2017-08-14T09:39:36.846Z,40.87
2017-08-14T09:42:04.607Z,40.58
2017-08-14T09:44:32.454Z,40.98
2017-08-14T09:47:00.341Z,37.90
2017-08-14T09:49:27.977Z,38.30
2017-08-14T09:51:55.664Z,36.12
2017-08-14T09:54:23.498Z,36.39
2017-08-14T09:56:51.241Z,36.69
2017-08-14T09:59:19.049Z,35.16
2017-08-14T10:01:46.923Z,35.97
2017-08-14T10:04:14.765Z,38.22
2017-08-14T10:06:42.511Z,38.35
2017-08-14T10:09:10.533Z,40.92
2017-08-14T10:11:38.543Z,41.52
2017-08-14T10:14:06.471Z,39.98
2017-08-14T10:16:34.105Z,41.76
2017-08-14T10:19:02.147Z,41.50
2017-08-14T10:21:29.857Z,41.31
2017-08-14T10:23:57.706Z,42.83
2017-08-14T10:26:25.502Z,42.02
2017-08-14T10:28:53.313Z,41.54
2017-08-14T10:31:21.326Z,42.60
2017-08-14T10:33:49.401Z,42.40
2017-08-14T10:36:17.273Z,41.55
2017-08-14T10:38:45.108Z,42.30
2017-08-14T10:41:12.854Z,39.71
2017-08-14T10:43:40.818Z,41.60
2017-08-14T10:46:08.527Z,38.97
2017-08-14T10:48:36.187Z,40.63
2017-08-14T10:51:04.245Z,39.20
2017-08-14T10:53:31.919Z,37.63
2017-08-14T10:55:59.779Z,35.93
2017-08-14T10:58:27.524Z,35.56
2017-08-14T11:00:55.513Z,36.17
2017-08-14T11:03:23.258Z,35.61
2017-08-14T11:05:50.851Z,36.65
2017-08-14T11:08:18.569Z,37.24
2017-08-14T11:10:46.584Z,35.44
2017-08-14T11:13:14.553Z,31.51
2017-08-14T11:15:42.524Z,30.76
2017-08-14T11:18:10.238Z,32.61
2017-08-14T11:20:37.822Z,33.72
2017-08-14T11:23:05.511Z,34.90
2017-08-14T11:25:33.338Z,36.00
2017-08-14T11:28:01.081Z,38.73
2017-08-14T11:30:28.975Z,36.95
2017-08-14T11:32:56.771Z,37.84
2017-08-14T11:35:24.601Z,36.05
2017-08-14T11:37:52.351Z,37.37
2017-08-14T11:40:20.218Z,35.63
2017-08-14T11:42:48.028Z,33.78
2017-08-14T11:45:15.901Z,34.96
2017-08-14T11:47:43.743Z,37.68
2017-08-14T11:50:11.634Z,35.96
2017-08-14T11:52:39.355Z,38.19
2017-08-14T11:55:07.368Z,40.11
2017-08-14T11:57:35.030Z,40.02
2017-08-14T12:00:02.880Z,39.17
2017-08-14T12:02:30.598Z,39.39
2017-08-14T12:04:58.412Z,36.83
2017-08-14T12:07:26.160Z,36.19
2017-08-14T12:09:54.025Z,33.91
2017-08-14T12:12:21.989Z,34.23
2017-08-14T12:14:49.894Z,33.35
2017-08-14T12:17:17.552Z,33.63
2017-08-14T12:19:45.392Z,32.72
2017-08-14T12:22:13.289Z,35.79
2017-08-14T12:24:41.362Z,34.00
2017-08-14T12:27:09.194Z,33.45
2017-08-14T12:29:37.094Z,30.75
2017-08-14T12:32:04.961Z,30.15
2017-08-14T12:34:32.801Z,34.34
2017-08-14T12:37:00.542Z,34.37
2017-08-14T12:39:28.356Z,37.38
2017-08-14T12:41:56.124Z,38.51
2017-08-14T12:44:23.944Z,35.30
2017-08-14T12:46:51.908Z,38.15
2017-08-14T12:49:19.800Z,35.32
2017-08-14T12:51:47.692Z,35.66
2017-08-14T12:54:15.353Z,34.38
2017-08-14T12:56:43.014Z,33.15
2017-08-14T12:59:10.636Z,34.87
2017-08-14T13:01:38.294Z,35.46
2017-08-14T13:04:05.956Z,37.01
2017-08-14T13:06:33.796Z,37.34
2017-08-14T13:09:01.536Z,38.17
2017-08-14T13:11:29.532Z,40.23
2017-08-14T13:13:57.375Z,39.11
2017-08-14T13:16:25.209Z,38.57
2017-08-14T13:18:53.035Z,39.89
2017-08-14T13:21:20.659Z,39.78
2017-08-14T13:23:48.283Z,38.67
2017-08-14T13:26:15.973Z,39.49
2017-08-14T13:28:43.643Z,40.38
2017-08-14T13:31:11.521Z,38.68
2017-08-14T13:33:39.263Z,40.22
2017-08-14T13:36:07.224Z,40.21
2017-08-14T13:38:35.297Z,41.40
2017-08-14T13:41:03.039Z,42.09
2017-08-14T13:43:30.835Z,40.78
2017-08-14T13:45:58.576Z,41.54
2017-08-14T13:48:26.294Z,43.08
2017-08-14T13:50:54.136Z,41.97
2017-08-14T13:53:22.110Z,39.73
2017-08-14T13:55:49.762Z,38.31
2017-08-14T13:58:17.432Z,39.83
2017-08-14T14:00:45.505Z,36.89
2017-08-14T14:03:13.221Z,37.20
2017-08-14T14:05:41.242Z,36.72
2017-08-14T14:08:09.107Z,39.12
2017-08-14T14:10:36.753Z,38.36
2017-08-14T14:13:04.635Z,38.32
2017-08-14T14:15:32.653Z,39.37
2017-08-14T14:18:00.548Z,40.72
2017-08-14T14:20:28.439Z,39.09
2017-08-14T14:22:56.505Z,40.39
2017-08-14T14:25:24.350Z,39.99
2017-08-14T14:27:52.028Z,41.03
2017-08-14T14:30:19.761Z,41.43
2017-08-14T14:32:47.775Z,40.22
2017-08-14T14:35:15.620Z,40.57
2017-08-14T14:37:43.301Z,40.88
2017-08-14T14:40:11.151Z,41.81
2017-08-14T14:42:38.820Z,40.75
2017-08-14T14:45:06.540Z,40.64
2017-08-14T14:47:34.571Z,40.49
2017-08-14T14:50:02.393Z,42.60
2017-08-14T14:52:30.198Z,41.01
2017-08-14T14:54:58.224Z,41.02
2017-08-14T14:57:26.022Z,41.19
2017-08-14T14:59:53.742Z,41.98
2017-08-14T15:02:21.761Z,42.50
2017-08-14T15:04:49.474Z,43.46
2017-08-14T15:07:17.501Z,40.71
2017-08-14T15:09:45.075Z,42.23
2017-08-14T15:12:12.800Z,42.26
2017-08-14T15:14:40.424Z,46.35
2017-08-14T15:17:08.354Z,44.87
2017-08-14T15:19:36.404Z,45.85
2017-08-14T15:22:04.087Z,45.70
2017-08-14T15:24:31.735Z,45.95
2017-08-14T15:26:59.405Z,43.75
2017-08-14T15:29:27.027Z,45.14
2017-08-14T15:31:54.726Z,45.36
2017-08-14T15:34:22.456Z,46.04
2017-08-14T15:36:50.264Z,46.53
2017-08-14T15:39:17.858Z,47.68
2017-08-14T15:41:45.589Z,48.50
2017-08-14T15:44:13.200Z,49.55
2017-08-14T15:46:40.911Z,49.90
2017-08-14T15:49:08.568Z,50.38
2017-08-14T15:51:36.201Z,50.42
2017-08-14T15:54:03.892Z,51.17
2017-08-14T15:56:31.554Z,50.84
2017-08-14T15:58:59.217Z,50.73
2017-08-14T16:01:27.047Z,51.00
2017-08-14T16:03:54.746Z,50.81
2017-08-14T16:06:22.603Z,50.79
2017-08-14T16:08:50.280Z,51.45
2017-08-14T16:11:17.920Z,51.68
2017-08-14T16:13:45.537Z,50.82
2017-08-14T16:16:13.379Z,51.78
2017-08-14T16:18:41.117Z,52.77
2017-08-14T16:21:09.205Z,52.06
2017-08-14T16:23:37.047Z,51.01
2017-08-14T16:26:04.714Z,52.06
2017-08-14T16:28:32.395Z,51.76
2017-08-14T16:31:00.009Z,51.79
2017-08-14T16:33:27.920Z,51.20
2017-08-14T16:35:55.777Z,51.96
2017-08-14T16:38:23.626Z,52.37
2017-08-14T16:40:51.524Z,52.84
2017-08-14T16:43:19.443Z,52.04
2017-08-14T16:45:47.251Z,51.88
2017-08-14T16:48:14.905Z,51.82
2017-08-14T16:50:42.641Z,52.12
2017-08-14T16:53:10.650Z,52.50
2017-08-14T16:55:38.306Z,53.16
2017-08-14T16:58:05.977Z,57.31
2017-08-14T17:00:33.811Z,58.20
2017-08-14T17:03:01.386Z,58.93
2017-08-14T17:05:29.245Z,59.43
2017-08-14T17:07:56.827Z,59.41
2017-08-14T17:10:24.484Z,59.74
2017-08-14T17:12:52.138Z,59.98
2017-08-14T17:15:19.759Z,60.01
2017-08-14T17:17:47.464Z,59.96
2017-08-14T17:20:15.086Z,59.64
2017-08-14T17:22:43.002Z,59.41
2017-08-14T17:25:10.731Z,59.22
2017-08-14T17:27:38.527Z,60.70
2017-08-14T17:30:06.195Z,59.51
2017-08-14T17:32:33.856Z,59.14
2017-08-14T17:35:02.341Z,59.05
2017-08-14T17:37:30.079Z,59.07
2017-08-14T17:39:57.981Z,59.66
2017-08-14T17:42:25.940Z,59.75
2017-08-14T17:44:53.795Z,59.90
2017-08-14T17:47:21.677Z,60.24
2017-08-14T17:49:49.581Z,60.21
2017-08-14T17:52:17.614Z,60.55
2017-08-14T17:54:45.663Z,61.00
2017-08-14T17:57:13.725Z,61.47
2017-08-14T17:59:41.425Z,61.75
2017-08-14T18:02:09.284Z,62.04
2017-08-14T18:04:37.007Z,61.88
2017-08-14T18:07:04.998Z,63.26
2017-08-14T18:09:32.743Z,62.23
2017-08-14T18:12:00.710Z,61.72
2017-08-14T18:14:28.530Z,62.43
2017-08-14T18:16:56.398Z,62.98
2017-08-14T18:19:24.309Z,63.22
2017-08-14T18:21:52.129Z,62.01
2017-08-14T18:24:19.930Z,63.65
2017-08-14T18:26:47.863Z,63.79
2017-08-14T18:29:15.450Z,65.38
2017-08-14T18:31:43.316Z,66.21
2017-08-14T18:34:11.353Z,65.64
2017-08-14T18:36:39.079Z,66.14
2017-08-14T18:39:07.054Z,68.04
2017-08-14T18:41:34.743Z,68.36
2017-08-14T18:44:02.615Z,67.85
2017-08-14T18:46:30.326Z,67.52
2017-08-14T18:48:58.346Z,66.44
2017-08-14T18:51:26.180Z,66.31
2017-08-14T18:53:53.865Z,67.55
2017-08-14T18:56:21.945Z,68.03
2017-08-14T18:58:49.812Z,67.66
2017-08-14T19:01:17.455Z,67.54
2017-08-14T19:03:45.195Z,66.93
2017-08-14T19:06:13.059Z,65.68
2017-08-14T19:08:42.622Z,63.88
2017-08-14T19:11:09.160Z,63.14
2017-08-14T19:13:36.913Z,63.88
2017-08-14T19:16:04.886Z,63.79
2017-08-14T19:18:33.103Z,64.09
2017-08-14T19:21:00.845Z,64.23
2017-08-14T19:23:28.684Z,63.73
2017-08-14T19:25:56.869Z,63.92
2017-08-14T19:28:26.341Z,64.01
2017-08-14T19:30:55.157Z,63.59
2017-08-14T19:33:24.888Z,64.62
2017-08-14T19:35:53.991Z,63.87
2017-08-14T19:38:22.974Z,65.29
2017-08-14T19:40:51.953Z,65.62
2017-08-14T19:43:20.327Z,66.02
2017-08-14T19:45:48.893Z,65.44
2017-08-14T19:48:17.133Z,66.34
2017-08-14T19:50:45.559Z,66.08
2017-08-14T19:53:13.686Z,66.75
2017-08-14T19:55:42.345Z,66.59
2017-08-14T19:58:11.708Z,66.47
2017-08-14T20:00:41.369Z,66.91
2017-08-14T20:03:10.119Z,65.91
2017-08-14T20:05:39.386Z,66.60
2017-08-14T20:08:08.553Z,66.41
2017-08-14T20:10:37.429Z,67.32
2017-08-14T20:13:06.492Z,67.31
2017-08-14T20:15:35.361Z,67.56
2017-08-14T20:18:03.049Z,68.59
2017-08-14T20:20:30.696Z,69.82
2017-08-14T20:22:58.328Z,69.54
2017-08-14T20:25:26.244Z,70.01
2017-08-14T20:27:54.173Z,70.40
2017-08-14T20:30:21.907Z,71.04
2017-08-14T20:32:49.645Z,70.44
2017-08-14T20:35:17.313Z,71.58
2017-08-14T20:37:44.969Z,71.72
2017-08-14T20:40:12.618Z,71.86
2017-08-14T20:42:40.431Z,71.84
2017-08-14T20:45:08.270Z,71.62
2017-08-14T20:47:36.135Z,71.72
2017-08-14T20:50:04.002Z,72.66
2017-08-14T20:52:31.760Z,72.57
2017-08-14T20:54:59.406Z,73.07
2017-08-14T20:57:27.251Z,73.32
2017-08-14T20:59:55.054Z,73.22
2017-08-14T21:02:22.968Z,73.99
2017-08-14T21:04:50.684Z,74.27
2017-08-14T21:07:18.333Z,74.33
2017-08-14T21:09:46.001Z,73.33
2017-08-14T21:12:13.732Z,74.56
2017-08-14T21:14:41.741Z,73.88
2017-08-14T21:17:09.382Z,73.96
2017-08-14T21:19:37.061Z,74.39
2017-08-14T21:22:04.724Z,74.58
2017-08-14T21:24:32.716Z,74.84
2017-08-14T21:27:00.310Z,74.76
2017-08-14T21:29:28.174Z,75.14
2017-08-14T21:31:55.981Z,75.92
2017-08-14T21:34:23.988Z,76.22
2017-08-14T21:36:51.721Z,76.61
2017-08-14T21:39:19.745Z,76.19
2017-08-14T21:41:47.343Z,76.54
2017-08-14T21:44:15.255Z,76.39
2017-08-14T21:46:43.095Z,75.67
2017-08-14T21:49:10.848Z,75.19
2017-08-14T21:51:38.720Z,75.96
2017-08-14T21:54:06.525Z,75.86
2017-08-14T21:56:34.461Z,76.13
2017-08-14T21:59:02.185Z,77.14
2017-08-14T22:01:29.997Z,78.02
2017-08-14T22:03:57.842Z,78.25
2017-08-14T22:06:25.704Z,77.72
2017-08-14T22:08:53.746Z,77.75
2017-08-14T22:11:21.495Z,77.57
2017-08-14T22:13:49.303Z,77.54
2017-08-14T22:16:17.148Z,79.72
2017-08-14T22:18:45.050Z,80.09
2017-08-14T22:21:12.757Z,79.47
2017-08-14T22:23:40.584Z,79.79
2017-08-14T22:26:08.167Z,79.58
2017-08-14T22:28:35.801Z,78.97
2017-08-14T22:31:03.964Z,79.31
2017-08-14T22:33:31.821Z,80.10
2017-08-14T22:35:59.688Z,80.78
2017-08-14T22:38:27.784Z,81.07
2017-08-14T22:40:55.853Z,81.55
2017-08-14T22:43:23.914Z,80.77
2017-08-14T22:45:51.996Z,80.36
2017-08-14T22:48:19.849Z,81.68
2017-08-14T22:50:47.589Z,81.50
2017-08-14T22:53:15.593Z,81.60
2017-08-14T22:55:43.262Z,81.57
2017-08-14T22:58:11.333Z,81.82
2017-08-14T23:00:39.219Z,81.87
2017-08-14T23:03:07.062Z,81.92
2017-08-14T23:05:35.092Z,82.10
2017-08-14T23:08:03.155Z,82.70
2017-08-14T23:10:31.186Z,82.86
2017-08-14T23:12:58.819Z,82.65
2017-08-14T23:15:26.802Z,82.25
2017-08-14T23:17:54.928Z,82.52
2017-08-14T23:20:22.918Z,81.98
2017-08-14T23:22:50.681Z,81.83
2017-08-14T23:25:18.478Z,81.13
2017-08-14T23:27:46.206Z,82.21
2017-08-14T23:30:14.205Z,82.58
2017-08-14T23:32:42.077Z,81.18
2017-08-14T23:35:09.989Z,81.86
2017-08-14T23:37:38.012Z,82.73
2017-08-14T23:40:06.053Z,83.25
2017-08-14T23:42:34.344Z,83.89
2017-08-14T23:45:02.228Z,84.06
2017-08-14T23:47:30.104Z,83.66
2017-08-14T23:49:58.543Z,83.28
2017-08-14T23:52:26.604Z,83.13
2017-08-14T23:54:54.720Z,83.25
2017-08-14T23:57:22.382Z,83.68
2017-08-14T23:59:50.257Z,83.79
